Time;durP1;ratioP1;P1;durP2;ratioP2;P2;SDS_P1;SDS_P2;PMS_P1;PMS_P2;Temp;Humidity;BMP_temperature;BMP_pressure;BME280_temperature;BME280_humidity;BME280_pressure;Samples;Min_cycle;Max_cycle;Signal;HPM_P1;HPM_P2
2022/05/22 00:00:10;;;;;;;3.42;1.70;;;;;;;15.48;64.55;99756.53;342077;28;1141;-70
2022/05/22 00:00:24;;;;;;;3.10;1.90;;;;;;;15.46;64.34;99748.75;342104;28;1071;-68
2022/05/22 00:00:36;;;;;;;4.50;2.30;;;;;;;15.46;64.51;99748.75;340790;28;1857;-69
2022/05/22 00:00:48;;;;;;;4.50;2.30;;;;;;;15.47;64.42;99750.44;342144;28;1681;-69
2022/05/22 00:01:01;;;;;;;3.40;2.17;;;;;;;15.50;64.55;99754.69;342602;28;721;-69
2022/05/22 00:01:15;;;;;;;3.55;2.10;;;;;;;15.48;64.54;99752.13;341341;28;1667;-69
2022/05/22 00:01:27;;;;;;;3.05;1.88;;;;;;;15.49;64.69;99752.97;342178;28;1313;-71
2022/05/22 00:01:41;;;;;;;3.17;1.88;;;;;;;15.48;64.45;99752.13;341815;28;1810;-70
2022/05/22 00:01:55;;;;;;;3.47;1.90;;;;;;;15.49;64.33;99751.22;341722;28;2154;-70
2022/05/22 00:02:09;;;;;;;2.70;1.80;;;;;;;15.50;64.33;99755.53;341606;28;1692;-73
2022/05/22 00:02:22;;;;;;;2.42;1.80;;;;;;;15.51;64.11;99756.38;340575;29;1015;-69
2022/05/22 00:02:34;;;;;;;2.08;1.88;;;;;;;15.50;64.05;99757.31;340879;28;1761;-70
2022/05/22 00:02:47;;;;;;;2.10;1.90;;;;;;;15.52;63.96;99758.91;341265;28;1756;-69
2022/05/22 00:02:59;;;;;;;2.97;1.77;;;;;;;15.53;64.14;99758.00;340881;29;1057;-70
2022/05/22 00:03:11;;;;;;;3.25;1.67;;;;;;;15.51;63.92;99759.84;340843;29;1073;-69
2022/05/22 00:03:23;;;;;;;3.80;1.70;;;;;;;15.52;64.15;99751.06;340678;28;1206;-70
2022/05/22 00:03:35;;;;;;;3.08;1.70;;;;;;;15.52;64.12;99756.28;340526;28;1985;-71
2022/05/22 00:03:47;;;;;;;3.33;1.90;;;;;;;15.51;63.84;99754.63;341475;28;1405;-73
2022/05/22 00:03:59;;;;;;;3.17;1.80;;;;;;;15.52;63.92;99758.91;341907;28;1020;-71
2022/05/22 00:04:12;;;;;;;2.97;1.88;;;;;;;15.52;63.93;99752.84;342364;28;1039;-70
2022/05/22 00:04:24;;;;;;;3.28;2.00;;;;;;;15.50;63.69;99758.16;342399;28;1180;-70
2022/05/22 00:04:37;;;;;;;2.63;2.00;;;;;;;15.50;63.70;99755.53;341557;28;2074;-68
2022/05/22 00:04:49;;;;;;;2.80;1.80;;;;;;;15.50;63.56;99755.53;341429;28;1767;-68
2022/05/22 00:05:02;;;;;;;2.60;1.70;;;;;;;15.49;63.80;99753.84;342025;28;1099;-69
2022/05/22 00:05:17;;;;;;;2.85;1.90;;;;;;;15.48;63.91;99746.91;342082;28;1327;-71
2022/05/22 00:05:29;;;;;;;3.22;2.05;;;;;;;15.48;64.16;99754.75;342027;28;1366;-68
2022/05/22 00:05:44;;;;;;;3.47;2.05;;;;;;;15.48;63.82;99752.13;341743;28;1591;-69
2022/05/22 00:05:56;;;;;;;3.80;2.10;;;;;;;15.49;63.93;99751.22;342090;28;1149;-69
2022/05/22 00:06:09;;;;;;;3.20;1.95;;;;;;;15.48;64.03;99748.69;342057;28;1979;-70
2022/05/22 00:06:22;;;;;;;2.90;1.85;;;;;;;15.48;64.09;99748.69;341831;28;1958;-71
2022/05/22 00:06:35;;;;;;;2.65;1.80;;;;;;;15.47;64.17;99750.44;341184;28;1839;-70
2022/05/22 00:06:49;;;;;;;2.83;1.70;;;;;;;15.49;64.14;99750.34;341767;28;1281;-70
2022/05/22 00:07:01;;;;;;;3.22;1.60;;;;;;;15.48;63.87;99741.66;339807;29;1034;-68
2022/05/22 00:07:13;;;;;;;4.10;1.70;;;;;;;15.48;63.76;99748.69;340682;29;1166;-70
2022/05/22 00:07:28;;;;;;;4.75;1.80;;;;;;;15.46;63.73;99748.75;340927;28;1414;-71
2022/05/22 00:07:40;;;;;;;4.43;1.80;;;;;;;15.45;63.54;99741.81;341230;28;2751;-70
2022/05/22 00:07:52;;;;;;;4.28;2.00;;;;;;;15.46;63.83;99748.75;341271;28;1638;-71
2022/05/22 00:08:05;;;;;;;2.97;2.00;;;;;;;15.47;63.84;99744.34;341164;29;983;-69
2022/05/22 00:08:17;;;;;;;2.75;2.10;;;;;;;15.45;63.98;99747.03;341075;28;1247;-70
2022/05/22 00:08:29;;;;;;;2.97;2.20;;;;;;;15.46;63.97;99747.91;342024;28;1374;-68
2022/05/22 00:08:41;;;;;;;2.53;1.98;;;;;;;15.45;63.74;99741.81;341331;28;1458;-69
2022/05/22 00:08:53;;;;;;;2.47;1.52;;;;;;;15.45;63.57;99744.41;341595;28;1630;-73
2022/05/22 00:09:05;;;;;;;2.90;1.40;;;;;;;15.47;63.75;99744.34;340664;29;1107;-69
2022/05/22 00:09:17;;;;;;;3.20;1.60;;;;;;;15.47;63.48;99745.19;341106;28;1092;-68
2022/05/22 00:09:29;;;;;;;2.40;1.70;;;;;;;15.47;63.63;99739.13;341337;28;1236;-69
2022/05/22 00:09:41;;;;;;;2.28;1.58;;;;;;;15.46;63.46;99743.50;341616;28;1669;-68
2022/05/22 00:09:53;;;;;;;2.22;1.50;;;;;;;15.47;63.55;99745.19;341602;28;1859;-69
2022/05/22 00:10:05;;;;;;;2.50;1.67;;;;;;;15.46;63.48;99740.91;342432;28;1105;-69
2022/05/22 00:10:19;;;;;;;2.85;1.80;;;;;;;15.45;63.62;99744.41;342396;28;1239;-69
2022/05/22 00:10:31;;;;;;;3.38;1.83;;;;;;;15.45;63.67;99741.81;341953;28;1552;-71
2022/05/22 00:10:43;;;;;;;3.60;1.92;;;;;;;15.43;63.60;99743.66;343491;28;1585;-68
2022/05/22 00:10:55;;;;;;;2.65;2.00;;;;;;;15.44;63.50;99739.28;343093;28;1055;-69
2022/05/22 00:11:07;;;;;;;2.58;1.88;;;;;;;15.42;63.77;99741.97;343387;28;1097;-69
2022/05/22 00:11:19;;;;;;;2.70;1.77;;;;;;;15.43;63.84;99741.03;342858;28;1954;-70
2022/05/22 00:11:31;;;;;;;3.00;1.80;;;;;;;15.41;63.70;99745.50;342801;28;1807;-73
2022/05/22 00:11:43;;;;;;;2.63;1.77;;;;;;;15.42;64.08;99738.53;343106;28;1569;-71
2022/05/22 00:11:55;;;;;;;3.03;1.80;;;;;;;15.41;63.90;99744.66;343294;28;1334;-68
2022/05/22 00:12:09;;;;;;;4.25;1.85;;;;;;;15.41;63.87;99737.66;343428;28;1098;-70
2022/05/22 00:12:21;;;;;;;4.63;1.85;;;;;;;15.41;63.79;99735.03;343425;28;1096;-69
2022/05/22 00:12:34;;;;;;;3.28;1.70;;;;;;;15.41;64.04;99735.03;342761;28;1823;-70
2022/05/22 00:12:46;;;;;;;2.85;1.70;;;;;;;15.39;63.88;99736.88;342220;28;1479;-70
2022/05/22 00:12:58;;;;;;;2.50;1.67;;;;;;;15.40;63.95;99738.59;342136;28;1015;-69
2022/05/22 00:13:10;;;;;;;2.33;1.63;;;;;;;15.37;63.84;99743.97;342192;28;1214;-70
2022/05/22 00:13:22;;;;;;;2.03;1.65;;;;;;;15.37;63.97;99733.50;342147;28;1038;-69
2022/05/22 00:13:34;;;;;;;2.35;1.70;;;;;;;15.35;63.85;99736.22;341611;28;1797;-72
2022/05/22 00:13:46;;;;;;;2.53;1.70;;;;;;;15.35;63.85;99730.09;341590;28;2053;-71
2022/05/22 00:13:58;;;;;;;2.33;1.65;;;;;;;15.33;63.88;99731.97;340720;29;1301;-71
2022/05/22 00:14:12;;;;;;;2.70;1.80;;;;;;;15.31;64.02;99733.81;340868;29;1107;-71
2022/05/22 00:14:28;;;;;;;3.47;2.13;;;;;;;15.29;64.16;99736.53;340864;29;1236;-70
2022/05/22 00:14:40;;;;;;;3.10;1.95;;;;;;;15.32;64.17;99735.50;341272;28;2083;-70
2022/05/22 00:14:52;;;;;;;2.63;1.77;;;;;;;15.32;64.05;99732.91;341847;28;1463;-70
2022/05/22 00:15:08;;;;;;;2.38;1.73;;;;;;;15.32;64.18;99730.28;341676;28;2133;-72
2022/05/22 00:15:20;;;;;;;2.70;1.70;;;;;;;15.32;64.08;99732.91;341851;28;964;-68
2022/05/22 00:15:32;;;;;;;3.45;1.70;;;;;;;15.33;63.83;99731.97;342280;28;1921;-72
2022/05/22 00:16:36;;;;;;;3.13;1.80;;;;;;;15.34;63.87;99729.28;342013;28;1747;-69
2022/05/22 00:16:48;;;;;;;3.22;1.70;;;;;;;15.31;64.06;99723.31;342221;28;1713;-69
2022/05/22 00:17:00;;;;;;;3.08;1.67;;;;;;;15.32;64.00;99730.28;341055;28;1053;-69
2022/05/22 00:17:13;;;;;;;3.15;1.80;;;;;;;15.28;63.93;99723.50;340926;28;1175;-69
2022/05/22 00:17:25;;;;;;;2.88;1.83;;;;;;;15.30;64.23;99726.88;340912;28;1385;-71
2022/05/22 00:17:37;;;;;;;1.92;1.70;;;;;;;15.26;63.89;99720.97;342631;28;1901;-69
2022/05/22 00:17:50;;;;;;;2.10;1.77;;;;;;;15.26;63.98;99726.19;342829;28;1861;-70
2022/05/22 00:18:02;;;;;;;2.28;1.83;;;;;;;15.23;64.01;99725.50;343439;28;1115;-69
2022/05/22 00:18:14;;;;;;;3.17;1.87;;;;;;;15.22;64.09;99723.81;343281;28;1237;-69
2022/05/22 00:18:26;;;;;;;3.55;1.80;;;;;;;15.17;64.34;99724.91;343179;28;1262;-70
2022/05/22 00:18:38;;;;;;;3.28;1.70;;;;;;;15.20;64.29;99726.50;342331;28;1662;-69
2022/05/22 00:18:50;;;;;;;4.32;1.85;;;;;;;15.22;64.49;99726.44;342656;28;1818;-69
2022/05/22 00:19:16;;;;;;;4.50;1.90;;;;;;;15.24;64.52;99728.03;343298;28;1243;-72
2022/05/22 00:19:33;;;;;;;4.50;1.70;;;;;;;15.23;64.43;99725.50;342661;28;1385;-69
2022/05/22 00:19:45;;;;;;;2.78;1.65;;;;;;;15.23;64.49;99722.88;342115;28;1792;-72
2022/05/22 00:19:57;;;;;;;3.13;1.88;;;;;;;15.23;64.48;99720.25;341222;28;1313;-70
2022/05/22 00:20:10;;;;;;;3.10;1.90;;;;;;;15.22;64.49;99723.81;341177;28;1455;-68
2022/05/22 00:20:22;;;;;;;2.55;1.90;;;;;;;15.25;64.41;99721.03;341173;28;1062;-69
2022/05/22 00:20:34;;;;;;;2.35;1.88;;;;;;;15.24;64.36;99724.59;341536;28;1565;-70
2022/05/22 00:20:46;;;;;;;3.08;1.90;;;;;;;15.22;64.37;99718.59;342187;28;1400;-70
2022/05/22 00:20:58;;;;;;;3.35;1.90;;;;;;;15.23;64.21;99720.25;342538;28;1118;-71
2022/05/22 00:21:10;;;;;;;3.60;1.90;;;;;;;15.21;64.37;99717.72;342331;28;1160;-70
2022/05/22 00:21:22;;;;;;;3.33;1.88;;;;;;;15.21;64.59;99722.94;342369;28;1291;-71
2022/05/22 00:21:35;;;;;;;3.10;1.75;;;;;;;15.20;64.59;99726.50;341291;28;1968;-72
2022/05/22 00:21:48;;;;;;;3.15;1.95;;;;;;;15.21;64.82;99727.34;341918;28;1671;-70
2022/05/22 00:22:01;;;;;;;4.13;2.20;;;;;;;15.17;64.82;99716.16;342188;28;1277;-70
2022/05/22 00:22:13;;;;;;;4.63;2.00;;;;;;;15.18;64.49;99726.56;341026;29;963;-69
2022/05/22 00:22:25;;;;;;;3.42;1.83;;;;;;;15.19;64.64;99722.19;339934;29;2482;-71
2022/05/22 00:22:40;;;;;;;2.85;1.80;;;;;;;15.18;64.64;99726.56;339699;28;1851;-68
2022/05/22 00:22:52;;;;;;;2.28;1.70;;;;;;;15.18;64.41;99723.97;339935;28;2090;-69
2022/05/22 00:23:04;;;;;;;3.75;1.63;;;;;;;15.19;64.38;99730.03;340783;29;1157;-69
2022/05/22 00:23:16;;;;;;;3.67;1.52;;;;;;;15.17;64.38;99722.28;340800;29;1310;-69
2022/05/22 00:23:33;;;;;;;3.65;1.73;;;;;;;15.19;64.51;99730.03;340379;29;1348;-68
2022/05/22 00:23:45;;;;;;;3.00;1.90;;;;;;;15.17;64.42;99726.66;340649;29;1880;-70
2022/05/22 00:23:57;;;;;;;3.83;2.00;;;;;;;15.18;64.50;99718.72;340827;29;1295;-69
2022/05/22 00:24:11;;;;;;;3.83;1.92;;;;;;;15.18;64.46;99729.19;340138;29;1603;-70
2022/05/22 00:24:26;;;;;;;3.05;1.90;;;;;;;15.17;64.65;99726.66;341186;28;1326;-68
2022/05/22 00:24:38;;;;;;;2.78;2.00;;;;;;;15.15;64.63;99729.38;340865;28;1819;-69
2022/05/22 00:24:52;;;;;;;4.28;1.88;;;;;;;15.15;64.72;99726.75;340235;28;2032;-68
2022/05/22 00:25:05;;;;;;;6.05;1.80;;;;;;;15.16;64.75;99724.97;340801;29;1227;-70
2022/05/22 00:25:18;;;;;;;6.43;1.95;;;;;;;15.15;64.65;99726.75;341239;29;773;-69
2022/05/22 00:25:30;;;;;;;4.50;1.92;;;;;;;15.13;64.61;99725.97;340674;28;1330;-71
2022/05/22 00:25:42;;;;;;;3.20;1.90;;;;;;;15.15;64.58;99726.75;340296;28;1790;-71
2022/05/22 00:25:57;;;;;;;3.88;2.00;;;;;;;15.14;64.53;99729.44;338929;29;2093;-69
2022/05/22 00:26:10;;;;;;;3.95;2.10;;;;;;;15.14;64.65;99730.28;339441;29;1065;-71
2022/05/22 00:26:22;;;;;;;4.20;2.03;;;;;;;15.12;64.73;99721.66;339497;29;1197;-69
2022/05/22 00:26:34;;;;;;;3.80;2.00;;;;;;;15.09;64.75;99729.69;339077;29;1925;-69
2022/05/22 00:26:48;;;;;;;3.10;1.95;;;;;;;15.10;64.80;99727.91;339443;29;1806;-69
2022/05/22 00:27:02;;;;;;;3.58;2.20;;;;;;;15.09;64.97;99718.34;339630;29;1255;-71
2022/05/22 00:27:15;;;;;;;3.38;2.13;;;;;;;15.07;64.99;99726.28;339455;29;1354;-70
2022/05/22 00:27:27;;;;;;;2.72;1.95;;;;;;;15.07;64.99;99721.06;339296;29;1265;-69
2022/05/22 00:27:41;;;;;;;3.00;1.90;;;;;;;15.08;65.06;99717.50;339424;29;1965;-69
2022/05/22 00:27:54;;;;;;;3.08;2.00;;;;;;;15.07;65.16;99731.53;339358;29;1927;-71
2022/05/22 00:28:06;;;;;;;3.15;2.05;;;;;;;15.09;65.19;99723.56;340381;29;1163;-70
2022/05/22 00:28:18;;;;;;;3.55;2.05;;;;;;;15.08;65.19;99727.13;339602;29;1103;-70
2022/05/22 00:28:30;;;;;;;3.47;1.90;;;;;;;15.08;65.36;99727.13;339238;29;1520;-69
2022/05/22 00:28:42;;;;;;;3.20;1.90;;;;;;;15.08;65.32;99725.34;339503;29;1750;-70
2022/05/22 00:28:54;;;;;;;6.15;1.85;;;;;;;15.04;65.07;99718.56;339915;28;1927;-70
2022/05/22 00:29:07;;;;;;;6.82;1.80;;;;;;;15.02;65.34;99723.03;340772;29;1249;-69
2022/05/22 00:29:19;;;;;;;5.47;2.00;;;;;;;15.02;65.18;99725.66;340415;29;2229;-71
2022/05/22 00:29:31;;;;;;;3.95;2.10;;;;;;;15.00;65.43;99719.66;339460;29;1275;-70
2022/05/22 00:29:43;;;;;;;5.47;2.15;;;;;;;15.03;65.43;99724.75;337733;29;1777;-73
2022/05/22 00:29:55;;;;;;;4.07;1.95;;;;;;;15.03;65.20;99719.50;338570;29;1499;-72
2022/05/22 00:30:10;;;;;;;4.00;2.10;;;;;;;15.06;65.02;99726.34;340592;29;1158;-70
2022/05/22 00:30:22;;;;;;;4.00;2.28;;;;;;;15.03;65.06;99724.75;341167;28;1825;-71
2022/05/22 00:30:34;;;;;;;4.55;2.30;;;;;;;15.05;65.20;99722.91;342001;28;1392;-70
2022/05/22 00:30:46;;;;;;;4.07;2.10;;;;;;;15.01;65.15;99716.13;342084;28;1051;-69
2022/05/22 00:30:58;;;;;;;3.13;1.90;;;;;;;15.00;65.57;99724.03;341948;28;1091;-70
2022/05/22 00:31:10;;;;;;;4.28;2.10;;;;;;;14.99;65.39;99720.59;342012;28;1176;-70
2022/05/22 00:31:22;;;;;;;4.70;2.40;;;;;;;14.95;65.65;99716.41;341931;28;1287;-70
2022/05/22 00:31:35;;;;;;;4.40;2.25;;;;;;;14.95;65.71;99721.63;341142;28;1857;-70
2022/05/22 00:31:48;;;;;;;3.33;2.05;;;;;;;14.94;65.66;99723.41;342083;28;1402;-69
2022/05/22 00:32:00;;;;;;;2.50;1.80;;;;;;;14.95;65.35;99726.88;343391;28;1061;-69
2022/05/22 00:32:12;;;;;;;2.00;1.77;;;;;;;14.95;65.06;99726.88;343578;28;1422;-70
2022/05/22 00:32:24;;;;;;;2.33;1.80;;;;;;;14.95;64.92;99721.63;343555;28;1097;-70
2022/05/22 00:32:37;;;;;;;2.55;1.85;;;;;;;14.94;65.05;99718.19;341879;28;2414;-70
2022/05/22 00:32:50;;;;;;;2.90;1.70;;;;;;;14.91;65.45;99726.19;341333;28;1858;-69
2022/05/22 00:33:02;;;;;;;4.30;1.80;;;;;;;14.91;65.22;99727.94;340861;29;1055;-70
2022/05/22 00:33:14;;;;;;;4.18;1.90;;;;;;;14.89;65.26;99727.16;340880;29;1043;-70
2022/05/22 00:33:28;;;;;;;4.00;2.00;;;;;;;14.87;65.16;99723.78;340404;28;1254;-70
2022/05/22 00:33:40;;;;;;;2.70;1.88;;;;;;;14.88;64.95;99726.34;340891;28;1872;-71
2022/05/22 00:33:52;;;;;;;2.22;1.90;;;;;;;14.87;64.83;99718.53;341385;28;1821;-73
2022/05/22 00:34:04;;;;;;;2.40;1.88;;;;;;;14.85;65.01;99721.25;342131;28;1123;-69
2022/05/22 00:34:16;;;;;;;3.03;1.90;;;;;;;14.85;64.79;99725.63;341590;28;2112;-69
2022/05/22 00:34:29;;;;;;;2.83;1.90;;;;;;;14.84;65.00;99718.72;341542;28;1722;-70
2022/05/22 00:34:59;;;;;;;4.13;2.00;;;;;;;14.81;65.20;99730.19;341108;28;1497;-70
2022/05/22 00:35:11;;;;;;;3.85;2.00;;;;;;;14.79;64.96;99726.81;344881;28;1068;-70
2022/05/22 00:35:26;;;;;;;2.70;2.08;;;;;;;14.77;65.72;99724.25;345073;28;1159;-70
2022/05/22 00:35:40;;;;;;;2.55;2.15;;;;;;;14.74;65.42;99723.53;343840;28;1961;-71
2022/05/22 00:35:52;;;;;;;3.00;2.30;;;;;;;14.70;66.16;99727.25;344784;28;1790;-70
2022/05/22 00:36:04;;;;;;;3.70;2.30;;;;;;;14.69;65.99;99726.41;345067;28;1022;-70
2022/05/22 00:36:16;;;;;;;3.17;2.28;;;;;;;14.69;65.72;99723.78;343703;28;1094;-70
2022/05/22 00:36:28;;;;;;;2.90;2.50;;;;;;;14.68;65.55;99727.31;344138;28;1315;-70
2022/05/22 00:36:41;;;;;;;3.63;2.53;;;;;;;14.67;65.81;99730.84;344434;28;1865;-70
2022/05/22 00:36:53;;;;;;;3.85;2.33;;;;;;;14.65;65.92;99723.97;345241;28;1749;-69
2022/05/22 00:37:06;;;;;;;3.47;2.10;;;;;;;14.63;66.28;99726.69;344992;28;1322;-71
2022/05/22 00:37:18;;;;;;;4.13;2.20;;;;;;;14.62;66.74;99724.16;343682;28;1747;-70
2022/05/22 00:37:30;;;;;;;4.93;2.30;;;;;;;14.60;66.94;99726.00;344296;28;1255;-70
2022/05/22 00:37:42;;;;;;;6.28;2.25;;;;;;;14.57;67.03;99716.53;344682;28;1878;-70
2022/05/22 00:37:54;;;;;;;5.45;2.35;;;;;;;14.58;66.90;99726.06;345356;28;1879;-69
2022/05/22 00:38:06;;;;;;;5.18;2.45;;;;;;;14.55;67.15;99726.19;344013;28;1773;-69
2022/05/22 00:38:18;;;;;;;4.45;2.67;;;;;;;14.55;67.07;99723.56;345005;28;2059;-70
2022/05/22 00:38:30;;;;;;;4.70;3.00;;;;;;;14.55;66.96;99723.56;344424;28;1314;-70
2022/05/22 00:38:42;;;;;;;3.65;2.88;;;;;;;14.56;67.00;99730.50;344736;28;1294;-70
2022/05/22 00:38:54;;;;;;;3.80;2.70;;;;;;;14.56;66.92;99723.50;344020;28;1766;-70
2022/05/22 00:39:06;;;;;;;3.90;2.63;;;;;;;14.55;66.54;99719.19;342986;28;872;-70
2022/05/22 00:39:18;;;;;;;4.00;2.58;;;;;;;14.55;66.44;99728.81;343007;28;1042;-70
2022/05/22 00:39:30;;;;;;;3.30;2.50;;;;;;;14.57;66.47;99727.00;344043;28;1324;-70
2022/05/22 00:39:43;;;;;;;3.40;2.58;;;;;;;14.58;66.38;99723.44;344674;28;1206;-70
2022/05/22 00:39:55;;;;;;;3.08;2.53;;;;;;;14.58;66.34;99728.66;344707;28;1052;-70
2022/05/22 00:40:08;;;;;;;3.33;2.70;;;;;;;14.57;66.43;99721.75;344277;28;1813;-69
2022/05/22 00:40:20;;;;;;;3.58;2.53;;;;;;;14.58;66.19;99723.44;345080;28;1889;-70
2022/05/22 00:40:32;;;;;;;3.75;2.25;;;;;;;14.58;66.18;99719.03;344218;28;1821;-69
2022/05/22 00:40:45;;;;;;;4.22;2.42;;;;;;;14.58;66.37;99723.44;345029;28;1346;-70
2022/05/22 00:40:57;;;;;;;5.97;2.70;;;;;;;14.58;66.44;99728.66;344374;28;1801;-70
2022/05/22 00:41:11;;;;;;;5.50;2.58;;;;;;;14.57;66.36;99722.59;344840;28;1305;-71
2022/05/22 00:41:23;;;;;;;4.72;2.60;;;;;;;14.55;66.73;99727.03;345287;28;1074;-70
2022/05/22 00:41:36;;;;;;;4.45;2.72;;;;;;;14.54;66.70;99721.84;345072;28;1334;-70
2022/05/22 00:41:56;;;;;;;4.30;2.80;;;;;;;14.56;66.53;99725.28;345270;28;1015;-70
2022/05/22 00:42:15;;;;;;;3.80;2.47;;;;;;;14.56;66.41;99723.50;345432;28;1070;-70
2022/05/22 00:42:28;;;;;;;4.07;2.63;;;;;;;14.56;66.70;99726.13;345248;28;1345;-71
2022/05/22 00:42:43;;;;;;;3.42;2.42;;;;;;;14.58;66.51;99718.22;345279;28;1251;-70
2022/05/22 00:42:55;;;;;;;5.10;2.45;;;;;;;14.56;66.74;99714.81;345038;28;1301;-70
2022/05/22 00:43:26;;;;;;;5.30;2.47;;;;;;;14.56;66.78;99717.44;345246;28;1098;-70
2022/05/22 00:43:41;;;;;;;4.88;2.50;;;;;;;14.57;66.99;99721.75;343780;28;1026;-70
2022/05/22 00:43:55;;;;;;;6.82;2.75;;;;;;;14.58;67.28;99724.28;345232;28;1049;-70
2022/05/22 00:44:07;;;;;;;5.65;2.80;;;;;;;14.60;67.00;99718.97;345312;28;1240;-70
2022/05/22 00:44:21;;;;;;;4.18;2.78;;;;;;;14.57;67.39;99716.53;345248;28;1362;-70
2022/05/22 00:44:33;;;;;;;4.05;2.60;;;;;;;14.55;67.28;99716.56;345068;28;1238;-71
2022/05/22 00:44:46;;;;;;;5.00;2.55;;;;;;;14.59;67.03;99719.91;345176;28;1392;-70
2022/05/22 00:44:58;;;;;;;5.53;2.40;;;;;;;14.61;66.91;99718.06;344565;28;1171;-70
2022/05/22 00:45:10;;;;;;;4.73;2.33;;;;;;;14.61;66.54;99723.31;343823;28;1082;-70
2022/05/22 00:45:22;;;;;;;4.25;2.40;;;;;;;14.64;66.38;99719.69;343794;28;1106;-70
2022/05/22 00:45:34;;;;;;;4.00;2.50;;;;;;;14.64;66.09;99717.91;344985;28;1919;-70
2022/05/22 00:45:46;;;;;;;4.25;2.63;;;;;;;14.67;66.19;99723.00;345214;28;1114;-70
2022/05/22 00:46:00;;;;;;;2.97;2.30;;;;;;;14.67;66.05;99717.78;345092;28;1050;-70
2022/05/22 00:46:14;;;;;;;3.65;2.55;;;;;;;14.69;65.87;99721.16;345188;28;1044;-70
2022/05/22 00:46:27;;;;;;;4.50;2.53;;;;;;;14.69;65.91;99715.94;345015;28;1296;-69
2022/05/22 00:46:39;;;;;;;4.10;2.53;;;;;;;14.70;65.76;99715.00;345070;28;1264;-70
2022/05/22 00:46:51;;;;;;;3.42;2.53;;;;;;;14.71;65.32;99721.09;345296;28;1058;-70
2022/05/22 00:47:03;;;;;;;3.85;2.55;;;;;;;14.73;65.75;99707.00;345331;28;1109;-70
2022/05/22 00:47:16;;;;;;;4.53;2.60;;;;;;;14.73;65.90;99717.47;345114;28;1339;-70
2022/05/22 00:47:28;;;;;;;5.22;2.80;;;;;;;14.72;66.13;99710.53;345128;28;973;-70
2022/05/22 00:47:43;;;;;;;4.28;2.65;;;;;;;14.71;66.10;99719.31;344442;28;998;-70
2022/05/22 00:47:55;;;;;;;4.32;2.53;;;;;;;14.70;66.03;99717.59;345281;28;1030;-70
2022/05/22 00:48:07;;;;;;;4.10;2.42;;;;;;;14.70;66.00;99711.53;345193;28;1286;-70
2022/05/22 00:48:19;;;;;;;4.65;2.40;;;;;;;14.69;66.28;99715.06;343537;28;1668;-70
2022/05/22 00:48:33;;;;;;;4.30;2.50;;;;;;;14.70;66.03;99716.78;344605;28;1521;-70
2022/05/22 00:48:48;;;;;;;4.20;2.50;;;;;;;14.70;66.12;99715.00;343714;28;1603;-70
2022/05/22 00:49:08;;;;;;;4.47;2.58;;;;;;;14.72;65.76;99721.00;344438;28;1860;-69
2022/05/22 00:49:29;;;;;;;4.72;2.60;;;;;;;14.72;65.78;99715.75;345212;28;1097;-70
2022/05/22 00:49:43;;;;;;;4.15;2.40;;;;;;;14.72;65.67;99718.38;343352;28;1902;-70
2022/05/22 00:50:00;;;;;;;3.83;2.40;;;;;;;14.73;65.45;99709.63;344477;28;2469;-70
2022/05/22 00:50:12;;;;;;;3.80;2.50;;;;;;;14.72;65.61;99718.38;343841;28;1173;-70
2022/05/22 00:50:24;;;;;;;4.72;2.50;;;;;;;14.73;65.64;99707.00;344160;28;1823;-70
2022/05/22 00:50:36;;;;;;;5.28;2.40;;;;;;;14.73;65.56;99709.63;344540;28;1999;-70
2022/05/22 00:50:50;;;;;;;6.60;2.33;;;;;;;14.74;65.78;99713.09;345226;28;1894;-70
2022/05/22 00:51:13;;;;;;;5.38;2.25;;;;;;;14.72;65.79;99710.53;345152;28;1046;-71
2022/05/22 00:51:47;;;;;;;4.75;2.30;;;;;;;14.74;65.91;99708.69;343696;28;1316;-70
2022/05/22 00:52:11;;;;;;;5.57;2.30;;;;;;;14.75;65.63;99705.16;343775;28;1253;-70
2022/05/22 00:52:34;;;;;;;6.53;2.30;;;;;;;14.77;65.68;99712.94;344052;28;2058;-70
2022/05/22 00:52:53;;;;;;;5.25;2.10;;;;;;;14.77;65.71;99718.19;343537;28;1019;-70
2022/05/22 00:53:05;;;;;;;4.68;2.28;;;;;;;14.76;65.84;99712.06;343415;28;1185;-70
2022/05/22 00:53:19;;;;;;;3.97;2.50;;;;;;;14.76;65.88;99712.06;342815;28;2305;-70
2022/05/22 00:53:36;;;;;;;3.97;2.28;;;;;;;14.74;66.08;99713.09;343385;28;1974;-70
2022/05/22 00:54:14;;;;;;;4.35;2.25;;;;;;;14.75;65.95;99722.63;344250;28;1898;-70
2022/05/22 00:54:36;;;;;;;3.35;2.35;;;;;;;14.74;65.77;99708.69;343549;28;1236;-68
2022/05/22 00:54:54;;;;;;;4.82;2.22;;;;;;;14.76;65.74;99717.31;344931;28;1955;-70
2022/05/22 00:55:13;;;;;;;5.57;2.25;;;;;;;14.75;65.57;99715.63;345221;28;1137;-70
2022/05/22 00:55:29;;;;;;;3.42;2.00;;;;;;;14.74;65.62;99719.16;343875;28;1274;-69
2022/05/22 00:55:41;;;;;;;4.55;2.20;;;;;;;14.74;65.65;99718.31;344578;28;1611;-70
2022/05/22 00:55:53;;;;;;;4.85;2.10;;;;;;;14.71;65.78;99719.31;345249;28;1294;-70
2022/05/22 00:56:10;;;;;;;3.72;2.20;;;;;;;14.71;65.74;99721.94;345113;28;1030;-70
2022/05/22 00:56:27;;;;;;;4.97;2.40;;;;;;;14.72;65.76;99715.75;343833;28;1213;-70
2022/05/22 00:56:46;;;;;;;4.38;2.20;;;;;;;14.70;65.99;99716.78;343606;28;1414;-70
2022/05/22 00:57:07;;;;;;;3.47;2.30;;;;;;;14.69;66.06;99715.94;343542;28;1023;-70
2022/05/22 00:57:28;;;;;;;3.28;2.20;;;;;;;14.70;65.93;99717.59;343848;28;1144;-70
2022/05/22 00:57:45;;;;;;;3.80;2.33;;;;;;;14.70;66.01;99715.00;343444;28;1741;-69
2022/05/22 00:58:01;;;;;;;3.55;2.40;;;;;;;14.71;65.99;99714.09;344887;28;1907;-70
2022/05/22 00:58:19;;;;;;;3.40;2.30;;;;;;;14.72;66.02;99715.75;344757;28;1285;-70
2022/05/22 00:58:32;;;;;;;3.00;2.33;;;;;;;14.73;66.07;99711.41;343330;28;1318;-70
2022/05/22 00:58:45;;;;;;;2.60;2.22;;;;;;;14.75;65.93;99712.19;344058;28;1800;-70
2022/05/22 00:58:57;;;;;;;2.50;2.30;;;;;;;14.74;66.01;99707.84;345332;28;1074;-69
2022/05/22 00:59:12;;;;;;;3.42;2.50;;;;;;;14.73;66.13;99712.25;345366;28;1051;-70
2022/05/22 00:59:27;;;;;;;3.38;2.30;;;;;;;14.74;65.99;99710.47;345262;28;1076;-70
2022/05/22 00:59:51;;;;;;;3.13;2.15;;;;;;;14.75;65.58;99710.41;344368;28;1379;-70
2022/05/22 01:00:14;;;;;;;3.50;2.30;;;;;;;14.76;65.87;99706.84;343649;28;1135;-70
2022/05/22 01:00:31;;;;;;;4.20;2.40;;;;;;;14.76;65.83;99706.84;343797;28;1360;-68
2022/05/22 01:00:44;;;;;;;4.65;2.20;;;;;;;14.75;65.81;99705.16;344773;28;1180;-69
2022/05/22 01:00:56;;;;;;;4.00;2.13;;;;;;;14.77;65.94;99705.09;344900;28;1073;-70
2022/05/22 01:01:08;;;;;;;4.43;2.28;;;;;;;14.76;65.69;99706.84;344795;28;1172;-69
2022/05/22 01:01:21;;;;;;;3.97;2.10;;;;;;;14.75;65.63;99705.16;345017;28;1047;-69
2022/05/22 01:01:34;;;;;;;4.75;2.00;;;;;;;14.76;65.47;99701.59;344826;28;1266;-70
2022/05/22 01:01:46;;;;;;;4.32;2.03;;;;;;;14.76;65.63;99700.78;343633;28;1081;-69
2022/05/22 01:02:01;;;;;;;4.40;2.20;;;;;;;14.74;65.81;99697.38;344263;28;1300;-70
2022/05/22 01:02:15;;;;;;;3.30;2.25;;;;;;;14.74;65.88;99702.63;344206;28;2333;-69
2022/05/22 01:03:26;;;;;;;3.28;2.10;;;;;;;14.70;65.94;99695.84;343802;28;1032;-70
2022/05/22 01:03:36;;;;;;;2.92;2.03;;;;;;;14.68;65.56;99695.91;343613;28;1070;-70
2022/05/22 01:03:49;;;;;;;3.90;2.22;;;;;;;14.69;65.72;99697.63;345077;28;1562;-69
2022/05/22 01:04:05;;;;;;;4.10;2.30;;;;;;;14.68;65.88;99695.91;345200;28;1204;-70
2022/05/22 01:04:23;;;;;;;3.47;1.92;;;;;;;14.67;65.87;99696.84;345054;28;1075;-70
2022/05/22 01:04:36;;;;;;;3.17;1.92;;;;;;;14.67;65.66;99686.38;345188;28;1207;-70
2022/05/22 01:04:49;;;;;;;3.40;2.10;;;;;;;14.68;65.64;99698.53;343799;28;1297;-72
2022/05/22 01:05:01;;;;;;;4.18;2.10;;;;;;;14.68;65.64;99695.91;344858;28;1552;-70
2022/05/22 01:05:16;;;;;;;3.90;2.10;;;;;;;14.68;65.87;99700.31;345241;28;1027;-69
2022/05/22 01:05:29;;;;;;;3.63;2.17;;;;;;;14.68;65.81;99697.69;344550;28;1389;-69
2022/05/22 01:05:44;;;;;;;4.55;2.17;;;;;;;14.67;65.65;99696.84;343897;28;1043;-70
2022/05/22 01:06:05;;;;;;;3.88;2.20;;;;;;;14.68;65.75;99695.91;343824;28;1015;-70
2022/05/22 01:06:26;;;;;;;3.13;2.08;;;;;;;14.70;65.41;99695.84;343795;28;1253;-69
2022/05/22 01:06:38;;;;;;;3.90;1.90;;;;;;;14.68;65.53;99692.44;343758;28;1186;-69
2022/05/22 01:06:51;;;;;;;4.28;1.90;;;;;;;14.68;65.52;99695.91;344007;28;1023;-70
2022/05/22 01:07:06;;;;;;;4.32;2.10;;;;;;;14.69;65.61;99694.13;343998;28;1118;-70
2022/05/22 01:07:19;;;;;;;3.60;2.05;;;;;;;14.55;65.62;99693.03;343947;28;1070;-70
2022/05/22 01:07:31;;;;;;;3.00;1.98;;;;;;;14.58;65.57;99694.66;343690;28;1332;-70
2022/05/22 01:07:44;;;;;;;3.33;2.03;;;;;;;14.58;65.69;99694.66;343979;28;1047;-70
2022/05/22 01:07:59;;;;;;;3.50;2.10;;;;;;;14.57;65.41;99685.97;344737;28;1245;-69